sensor_id;sensor_type;location;lat;lon;timestamp;P1;durP1;ratioP1;P2;durP2;ratioP2
27402;SDS011;14862;49.494;8.530;2024-03-23T00:54:53;14.32;;;9.00;;
27402;SDS011;14862;49.494;8.530;2024-03-23T00:57:19;17.67;;;9.63;;
27402;SDS011;14862;49.494;8.530;2024-03-23T00:59:44;13.35;;;9.63;;
27402;SDS011;14862;49.494;8.530;2024-03-23T01:02:09;19.50;;;9.50;;
27402;SDS011;14862;49.494;8.530;2024-03-23T01:04:34;14.23;;;9.50;;
27402;SDS011;14862;49.494;8.530;2024-03-23T01:06:59;17.10;;;9.90;;
27402;SDS011;14862;49.494;8.530;2024-03-23T01:09:25;11.82;;;9.43;;
27402;SDS011;14862;49.494;8.530;2024-03-23T01:11:50;13.47;;;9.17;;
27402;SDS011;14862;49.494;8.530;2024-03-23T01:14:15;11.93;;;9.38;;
27402;SDS011;14862;49.494;8.530;2024-03-23T01:16:40;14.43;;;9.73;;
27402;SDS011;14862;49.494;8.530;2024-03-23T01:19:05;13.53;;;9.30;;
27402;SDS011;14862;49.494;8.530;2024-03-23T01:21:31;15.13;;;9.52;;
27402;SDS011;14862;49.494;8.530;2024-03-23T01:23:56;11.85;;;9.18;;
27402;SDS011;14862;49.494;8.530;2024-03-23T01:26:22;16.25;;;9.35;;
27402;SDS011;14862;49.494;8.530;2024-03-23T01:28:47;14.05;;;9.73;;
27402;SDS011;14862;49.494;8.530;2024-03-23T01:31:12;11.97;;;9.50;;
27402;SDS011;14862;49.494;8.530;2024-03-23T01:33:37;14.57;;;9.40;;
27402;SDS011;14862;49.494;8.530;2024-03-23T01:36:03;16.63;;;9.90;;
27402;SDS011;14862;49.494;8.530;2024-03-23T01:38:28;15.05;;;9.55;;
27402;SDS011;14862;49.494;8.530;2024-03-23T01:40:56;11.63;;;9.65;;
27402;SDS011;14862;49.494;8.530;2024-03-23T01:43:22;12.90;;;9.77;;
27402;SDS011;14862;49.494;8.530;2024-03-23T01:45:47;14.70;;;10.30;;
27402;SDS011;14862;49.494;8.530;2024-03-23T01:48:12;14.87;;;10.93;;
27402;SDS011;14862;49.494;8.530;2024-03-23T01:50:38;16.60;;;10.63;;
27402;SDS011;14862;49.494;8.530;2024-03-23T01:53:03;14.20;;;9.85;;
27402;SDS011;14862;49.494;8.530;2024-03-23T01:55:31;14.70;;;9.55;;
27402;SDS011;14862;49.494;8.530;2024-03-23T01:57:56;13.02;;;9.88;;
27402;SDS011;14862;49.494;8.530;2024-03-23T02:00:21;13.65;;;10.25;;
27402;SDS011;14862;49.494;8.530;2024-03-23T02:02:48;14.05;;;10.77;;
27402;SDS011;14862;49.494;8.530;2024-03-23T02:05:13;13.23;;;10.27;;
27402;SDS011;14862;49.494;8.530;2024-03-23T02:07:39;13.68;;;10.68;;
27402;SDS011;14862;49.494;8.530;2024-03-23T02:10:05;12.30;;;10.30;;
27402;SDS011;14862;49.494;8.530;2024-03-23T02:12:31;15.10;;;9.82;;
27402;SDS011;14862;49.494;8.530;2024-03-23T02:14:56;10.48;;;8.63;;
27402;SDS011;14862;49.494;8.530;2024-03-23T02:17:21;15.02;;;9.75;;
27402;SDS011;14862;49.494;8.530;2024-03-23T02:19:46;11.40;;;9.47;;
27402;SDS011;14862;49.494;8.530;2024-03-23T02:22:11;12.30;;;9.82;;
27402;SDS011;14862;49.494;8.530;2024-03-23T02:24:37;15.17;;;10.10;;
27402;SDS011;14862;49.494;8.530;2024-03-23T02:27:02;14.18;;;9.15;;
27402;SDS011;14862;49.494;8.530;2024-03-23T02:29:28;14.35;;;9.38;;
27402;SDS011;14862;49.494;8.530;2024-03-23T02:31:53;15.07;;;9.17;;
27402;SDS011;14862;49.494;8.530;2024-03-23T02:34:18;11.80;;;8.37;;
27402;SDS011;14862;49.494;8.530;2024-03-23T02:36:43;12.68;;;9.05;;
27402;SDS011;14862;49.494;8.530;2024-03-23T02:39:08;11.57;;;8.40;;
27402;SDS011;14862;49.494;8.530;2024-03-23T02:41:34;11.10;;;8.70;;
27402;SDS011;14862;49.494;8.530;2024-03-23T02:43:59;10.00;;;8.02;;
27402;SDS011;14862;49.494;8.530;2024-03-23T02:46:24;13.35;;;8.60;;
27402;SDS011;14862;49.494;8.530;2024-03-23T02:48:49;14.48;;;8.15;;
27402;SDS011;14862;49.494;8.530;2024-03-23T02:51:15;11.40;;;8.33;;
27402;SDS011;14862;49.494;8.530;2024-03-23T02:53:40;14.00;;;8.07;;
27402;SDS011;14862;49.494;8.530;2024-03-23T02:56:06;13.50;;;8.98;;
27402;SDS011;14862;49.494;8.530;2024-03-23T02:58:31;10.85;;;8.23;;
27402;SDS011;14862;49.494;8.530;2024-03-23T03:00:56;12.70;;;8.07;;
27402;SDS011;14862;49.494;8.530;2024-03-23T03:03:22;11.13;;;8.73;;
27402;SDS011;14862;49.494;8.530;2024-03-23T03:05:47;11.90;;;8.50;;
27402;SDS011;14862;49.494;8.530;2024-03-23T03:08:12;13.60;;;8.97;;
27402;SDS011;14862;49.494;8.530;2024-03-23T03:10:37;10.90;;;7.97;;
27402;SDS011;14862;49.494;8.530;2024-03-23T03:13:02;10.50;;;8.02;;
27402;SDS011;14862;49.494;8.530;2024-03-23T03:15:28;11.02;;;7.75;;
27402;SDS011;14862;49.494;8.530;2024-03-23T03:17:53;11.80;;;8.20;;
27402;SDS011;14862;49.494;8.530;2024-03-23T03:20:19;11.95;;;9.10;;
27402;SDS011;14862;49.494;8.530;2024-03-23T03:22:44;14.50;;;9.90;;
27402;SDS011;14862;49.494;8.530;2024-03-23T03:25:09;13.68;;;9.80;;
27402;SDS011;14862;49.494;8.530;2024-03-23T03:27:35;13.27;;;10.43;;
27402;SDS011;14862;49.494;8.530;2024-03-23T03:30:00;16.25;;;10.05;;
27402;SDS011;14862;49.494;8.530;2024-03-23T03:32:30;13.75;;;10.10;;
27402;SDS011;14862;49.494;8.530;2024-03-23T03:34:56;16.75;;;10.73;;
27402;SDS011;14862;49.494;8.530;2024-03-23T03:37:21;14.38;;;10.27;;
27402;SDS011;14862;49.494;8.530;2024-03-23T03:39:47;13.45;;;10.35;;
27402;SDS011;14862;49.494;8.530;2024-03-23T03:42:12;14.90;;;9.77;;
27402;SDS011;14862;49.494;8.530;2024-03-23T03:44:37;14.43;;;10.38;;
27402;SDS011;14862;49.494;8.530;2024-03-23T03:47:02;14.87;;;10.37;;
27402;SDS011;14862;49.494;8.530;2024-03-23T03:49:28;16.10;;;10.60;;
27402;SDS011;14862;49.494;8.530;2024-03-23T03:51:53;14.27;;;9.43;;
27402;SDS011;14862;49.494;8.530;2024-03-23T03:54:18;14.75;;;10.90;;
27402;SDS011;14862;49.494;8.530;2024-03-23T03:56:43;12.97;;;8.80;;
27402;SDS011;14862;49.494;8.530;2024-03-23T03:59:09;13.85;;;9.27;;
27402;SDS011;14862;49.494;8.530;2024-03-23T04:01:34;19.05;;;10.73;;
27402;SDS011;14862;49.494;8.530;2024-03-23T04:04:00;19.25;;;12.50;;
27402;SDS011;14862;49.494;8.530;2024-03-23T04:06:25;15.85;;;11.18;;
27402;SDS011;14862;49.494;8.530;2024-03-23T04:08:50;18.50;;;11.90;;
27402;SDS011;14862;49.494;8.530;2024-03-23T04:11:16;19.17;;;11.40;;
27402;SDS011;14862;49.494;8.530;2024-03-23T04:13:41;22.20;;;12.57;;
27402;SDS011;14862;49.494;8.530;2024-03-23T04:16:06;20.38;;;12.50;;
27402;SDS011;14862;49.494;8.530;2024-03-23T04:18:32;20.33;;;12.82;;
27402;SDS011;14862;49.494;8.530;2024-03-23T04:20:57;20.83;;;13.00;;
27402;SDS011;14862;49.494;8.530;2024-03-23T04:23:22;20.53;;;13.17;;
27402;SDS011;14862;49.494;8.530;2024-03-23T04:25:47;19.10;;;12.10;;
27402;SDS011;14862;49.494;8.530;2024-03-23T04:28:12;19.83;;;12.95;;
27402;SDS011;14862;49.494;8.530;2024-03-23T04:30:38;22.50;;;13.57;;
27402;SDS011;14862;49.494;8.530;2024-03-23T04:33:03;20.50;;;13.13;;
27402;SDS011;14862;49.494;8.530;2024-03-23T04:35:30;16.35;;;11.88;;
27402;SDS011;14862;49.494;8.530;2024-03-23T04:37:55;18.93;;;11.87;;
27402;SDS011;14862;49.494;8.530;2024-03-23T04:40:23;16.73;;;11.35;;
27402;SDS011;14862;49.494;8.530;2024-03-23T04:42:49;18.65;;;11.98;;
27402;SDS011;14862;49.494;8.530;2024-03-23T04:45:14;20.00;;;12.27;;
27402;SDS011;14862;49.494;8.530;2024-03-23T04:47:40;16.33;;;11.37;;
27402;SDS011;14862;49.494;8.530;2024-03-23T04:50:05;17.58;;;11.98;;
27402;SDS011;14862;49.494;8.530;2024-03-23T04:52:31;16.92;;;11.95;;
27402;SDS011;14862;49.494;8.530;2024-03-23T04:54:56;16.75;;;10.88;;
27402;SDS011;14862;49.494;8.530;2024-03-23T04:57:21;15.07;;;10.30;;
27402;SDS011;14862;49.494;8.530;2024-03-23T04:59:47;19.15;;;10.93;;
27402;SDS011;14862;49.494;8.530;2024-03-23T05:02:12;18.17;;;8.80;;
27402;SDS011;14862;49.494;8.530;2024-03-23T05:04:37;9.32;;;6.68;;
27402;SDS011;14862;49.494;8.530;2024-03-23T05:07:03;11.10;;;6.03;;
27402;SDS011;14862;49.494;8.530;2024-03-23T05:09:29;6.40;;;4.90;;
27402;SDS011;14862;49.494;8.530;2024-03-23T05:11:55;7.13;;;4.88;;
27402;SDS011;14862;49.494;8.530;2024-03-23T05:14:20;7.93;;;4.30;;
27402;SDS011;14862;49.494;8.530;2024-03-23T05:16:45;7.40;;;4.70;;
27402;SDS011;14862;49.494;8.530;2024-03-23T05:19:10;5.87;;;3.97;;
27402;SDS011;14862;49.494;8.530;2024-03-23T05:21:36;12.23;;;4.17;;
27402;SDS011;14862;49.494;8.530;2024-03-23T05:24:01;23.53;;;5.17;;
27402;SDS011;14862;49.494;8.530;2024-03-23T05:26:27;11.05;;;4.00;;
27402;SDS011;14862;49.494;8.530;2024-03-23T05:28:53;11.20;;;4.20;;
27402;SDS011;14862;49.494;8.530;2024-03-23T05:31:24;9.30;;;3.83;;
27402;SDS011;14862;49.494;8.530;2024-03-23T05:33:50;6.25;;;3.58;;
27402;SDS011;14862;49.494;8.530;2024-03-23T05:36:15;8.33;;;4.17;;
27402;SDS011;14862;49.494;8.530;2024-03-23T05:38:40;5.70;;;3.72;;
27402;SDS011;14862;49.494;8.530;2024-03-23T05:41:05;6.72;;;4.03;;
27402;SDS011;14862;49.494;8.530;2024-03-23T05:43:30;5.30;;;3.40;;
27402;SDS011;14862;49.494;8.530;2024-03-23T05:45:56;6.30;;;3.63;;
27402;SDS011;14862;49.494;8.530;2024-03-23T05:48:21;5.40;;;3.28;;
27402;SDS011;14862;49.494;8.530;2024-03-23T05:50:47;8.07;;;3.53;;
27402;SDS011;14862;49.494;8.530;2024-03-23T05:53:12;4.68;;;2.83;;
27402;SDS011;14862;49.494;8.530;2024-03-23T05:55:38;4.07;;;2.70;;
27402;SDS011;14862;49.494;8.530;2024-03-23T05:58:03;4.70;;;2.72;;
27402;SDS011;14862;49.494;8.530;2024-03-23T06:00:28;4.50;;;2.63;;
27402;SDS011;14862;49.494;8.530;2024-03-23T06:02:53;6.03;;;2.88;;
27402;SDS011;14862;49.494;8.530;2024-03-23T06:05:19;4.07;;;2.63;;
27402;SDS011;14862;49.494;8.530;2024-03-23T06:07:44;5.27;;;2.67;;
27402;SDS011;14862;49.494;8.530;2024-03-23T06:10:09;5.70;;;3.13;;
27402;SDS011;14862;49.494;8.530;2024-03-23T06:12:34;2.97;;;2.28;;
27402;SDS011;14862;49.494;8.530;2024-03-23T06:15:00;3.20;;;2.33;;
27402;SDS011;14862;49.494;8.530;2024-03-23T06:17:25;2.20;;;1.83;;
27402;SDS011;14862;49.494;8.530;2024-03-23T06:19:50;3.17;;;2.10;;
27402;SDS011;14862;49.494;8.530;2024-03-23T06:22:15;1.77;;;1.52;;
27402;SDS011;14862;49.494;8.530;2024-03-23T06:24:40;5.97;;;2.15;;
27402;SDS011;14862;49.494;8.530;2024-03-23T06:27:06;7.07;;;1.67;;
27402;SDS011;14862;49.494;8.530;2024-03-23T06:29:31;3.70;;;1.38;;
27402;SDS011;14862;49.494;8.530;2024-03-23T06:31:57;2.10;;;1.70;;
27402;SDS011;14862;49.494;8.530;2024-03-23T06:34:22;1.50;;;0.95;;
27402;SDS011;14862;49.494;8.530;2024-03-23T06:36:47;5.53;;;1.20;;
27402;SDS011;14862;49.494;8.530;2024-03-23T06:39:14;1.95;;;0.70;;
27402;SDS011;14862;49.494;8.530;2024-03-23T06:41:41;5.38;;;1.27;;
27402;SDS011;14862;49.494;8.530;2024-03-23T06:44:06;1.85;;;0.50;;
27402;SDS011;14862;49.494;8.530;2024-03-23T06:46:31;0.93;;;0.73;;
27402;SDS011;14862;49.494;8.530;2024-03-23T06:48:56;0.88;;;0.88;;
27402;SDS011;14862;49.494;8.530;2024-03-23T06:51:21;0.50;;;0.50;;
27402;SDS011;14862;49.494;8.530;2024-03-23T06:53:47;0.55;;;0.40;;
27402;SDS011;14862;49.494;8.530;2024-03-23T06:56:12;0.88;;;0.60;;
27402;SDS011;14862;49.494;8.530;2024-03-23T06:58:37;1.50;;;0.70;;
27402;SDS011;14862;49.494;8.530;2024-03-23T07:01:02;1.38;;;0.38;;
27402;SDS011;14862;49.494;8.530;2024-03-23T07:03:28;1.70;;;0.52;;
27402;SDS011;14862;49.494;8.530;2024-03-23T07:05:57;0.47;;;0.47;;
27402;SDS011;14862;49.494;8.530;2024-03-23T07:08:22;15.07;;;1.52;;
27402;SDS011;14862;49.494;8.530;2024-03-23T07:10:47;8.18;;;0.90;;
27402;SDS011;14862;49.494;8.530;2024-03-23T07:13:13;3.85;;;1.00;;
27402;SDS011;14862;49.494;8.530;2024-03-23T07:15:38;3.33;;;0.70;;
27402;SDS011;14862;49.494;8.530;2024-03-23T07:18:03;6.17;;;0.77;;
27402;SDS011;14862;49.494;8.530;2024-03-23T07:20:28;0.70;;;0.40;;
27402;SDS011;14862;49.494;8.530;2024-03-23T07:22:55;2.00;;;0.60;;
27402;SDS011;14862;49.494;8.530;2024-03-23T07:25:20;4.35;;;0.70;;
27402;SDS011;14862;49.494;8.530;2024-03-23T07:27:47;0.40;;;0.40;;
27402;SDS011;14862;49.494;8.530;2024-03-23T07:30:13;1.33;;;0.47;;
27402;SDS011;14862;49.494;8.530;2024-03-23T07:32:38;2.47;;;0.52;;
27402;SDS011;14862;49.494;8.530;2024-03-23T07:35:03;0.47;;;0.40;;
27402;SDS011;14862;49.494;8.530;2024-03-23T07:37:29;0.50;;;0.45;;
27402;SDS011;14862;49.494;8.530;2024-03-23T07:39:54;1.35;;;0.40;;
27402;SDS011;14862;49.494;8.530;2024-03-23T07:42:19;2.37;;;0.97;;
27402;SDS011;14862;49.494;8.530;2024-03-23T07:44:44;2.10;;;1.10;;
27402;SDS011;14862;49.494;8.530;2024-03-23T07:47:11;1.27;;;0.70;;
27402;SDS011;14862;49.494;8.530;2024-03-23T07:49:37;3.28;;;1.55;;
27402;SDS011;14862;49.494;8.530;2024-03-23T07:52:02;5.97;;;1.20;;
27402;SDS011;14862;49.494;8.530;2024-03-23T07:54:27;3.25;;;1.30;;
27402;SDS011;14862;49.494;8.530;2024-03-23T07:56:53;1.60;;;0.85;;
27402;SDS011;14862;49.494;8.530;2024-03-23T07:59:19;10.73;;;1.40;;
27402;SDS011;14862;49.494;8.530;2024-03-23T08:01:44;2.63;;;1.20;;
27402;SDS011;14862;49.494;8.530;2024-03-23T08:04:09;1.90;;;1.20;;
27402;SDS011;14862;49.494;8.530;2024-03-23T08:06:35;2.60;;;0.98;;
27402;SDS011;14862;49.494;8.530;2024-03-23T08:09:00;3.15;;;0.95;;
27402;SDS011;14862;49.494;8.530;2024-03-23T08:11:29;5.18;;;1.35;;
27402;SDS011;14862;49.494;8.530;2024-03-23T08:13:55;4.15;;;1.10;;
27402;SDS011;14862;49.494;8.530;2024-03-23T08:16:20;6.07;;;1.10;;
27402;SDS011;14862;49.494;8.530;2024-03-23T08:18:46;4.88;;;1.70;;
27402;SDS011;14862;49.494;8.530;2024-03-23T08:21:11;4.25;;;1.45;;
27402;SDS011;14862;49.494;8.530;2024-03-23T08:23:36;3.03;;;1.30;;
27402;SDS011;14862;49.494;8.530;2024-03-23T08:26:09;5.30;;;1.40;;
27402;SDS011;14862;49.494;8.530;2024-03-23T08:28:34;3.00;;;1.38;;
27402;SDS011;14862;49.494;8.530;2024-03-23T08:31:00;2.42;;;1.20;;
27402;SDS011;14862;49.494;8.530;2024-03-23T08:33:26;3.67;;;1.70;;
27402;SDS011;14862;49.494;8.530;2024-03-23T08:35:58;6.57;;;1.60;;
27402;SDS011;14862;49.494;8.530;2024-03-23T08:38:24;5.85;;;1.85;;
27402;SDS011;14862;49.494;8.530;2024-03-23T08:41:02;3.22;;;1.42;;
27402;SDS011;14862;49.494;8.530;2024-03-23T08:43:28;4.88;;;1.90;;
27402;SDS011;14862;49.494;8.530;2024-03-23T08:46:02;4.10;;;1.70;;
27402;SDS011;14862;49.494;8.530;2024-03-23T08:48:27;3.97;;;1.98;;
27402;SDS011;14862;49.494;8.530;2024-03-23T08:51:02;4.15;;;2.05;;
27402;SDS011;14862;49.494;8.530;2024-03-23T08:53:28;5.00;;;1.85;;
27402;SDS011;14862;49.494;8.530;2024-03-23T08:55:54;5.68;;;2.03;;
27402;SDS011;14862;49.494;8.530;2024-03-23T08:58:20;6.45;;;2.53;;
27402;SDS011;14862;49.494;8.530;2024-03-23T09:00:45;5.15;;;2.50;;
27402;SDS011;14862;49.494;8.530;2024-03-23T09:03:11;6.82;;;2.45;;
27402;SDS011;14862;49.494;8.530;2024-03-23T09:05:39;6.13;;;2.40;;
27402;SDS011;14862;49.494;8.530;2024-03-23T09:08:05;4.45;;;2.30;;
27402;SDS011;14862;49.494;8.530;2024-03-23T09:10:30;6.03;;;2.35;;
27402;SDS011;14862;49.494;8.530;2024-03-23T09:12:55;5.83;;;2.23;;
27402;SDS011;14862;49.494;8.530;2024-03-23T09:15:21;3.17;;;1.77;;
27402;SDS011;14862;49.494;8.530;2024-03-23T09:17:46;6.60;;;2.97;;
27402;SDS011;14862;49.494;8.530;2024-03-23T09:20:11;6.03;;;2.60;;
27402;SDS011;14862;49.494;8.530;2024-03-23T09:22:36;6.07;;;2.70;;
27402;SDS011;14862;49.494;8.530;2024-03-23T09:25:02;5.80;;;2.67;;
27402;SDS011;14862;49.494;8.530;2024-03-23T09:27:27;9.20;;;3.13;;
27402;SDS011;14862;49.494;8.530;2024-03-23T09:29:52;5.47;;;3.00;;
27402;SDS011;14862;49.494;8.530;2024-03-23T09:32:17;4.82;;;2.15;;
27402;SDS011;14862;49.494;8.530;2024-03-23T09:34:43;7.55;;;2.90;;
27402;SDS011;14862;49.494;8.530;2024-03-23T09:37:08;7.83;;;2.93;;
27402;SDS011;14862;49.494;8.530;2024-03-23T09:39:33;4.97;;;2.47;;
27402;SDS011;14862;49.494;8.530;2024-03-23T09:41:58;11.93;;;3.47;;
27402;SDS011;14862;49.494;8.530;2024-03-23T09:44:24;7.63;;;2.97;;
27402;SDS011;14862;49.494;8.530;2024-03-23T09:46:51;6.90;;;2.47;;
27402;SDS011;14862;49.494;8.530;2024-03-23T09:49:16;5.75;;;2.80;;
27402;SDS011;14862;49.494;8.530;2024-03-23T09:51:42;8.60;;;3.03;;
27402;SDS011;14862;49.494;8.530;2024-03-23T09:54:07;7.95;;;2.90;;
27402;SDS011;14862;49.494;8.530;2024-03-23T09:56:32;7.33;;;2.87;;
27402;SDS011;14862;49.494;8.530;2024-03-23T09:59:03;7.95;;;2.95;;
27402;SDS011;14862;49.494;8.530;2024-03-23T10:01:31;5.35;;;2.65;;
27402;SDS011;14862;49.494;8.530;2024-03-23T10:03:56;9.63;;;2.92;;
27402;SDS011;14862;49.494;8.530;2024-03-23T10:06:22;7.90;;;3.35;;
27402;SDS011;14862;49.494;8.530;2024-03-23T10:08:49;10.50;;;3.20;;
27402;SDS011;14862;49.494;8.530;2024-03-23T10:11:15;4.78;;;2.42;;
27402;SDS011;14862;49.494;8.530;2024-03-23T10:13:41;11.38;;;3.67;;
27402;SDS011;14862;49.494;8.530;2024-03-23T10:16:06;9.73;;;2.80;;
27402;SDS011;14862;49.494;8.530;2024-03-23T10:18:32;7.93;;;2.23;;
27402;SDS011;14862;49.494;8.530;2024-03-23T10:21:08;8.82;;;3.17;;
27402;SDS011;14862;49.494;8.530;2024-03-23T10:23:36;7.07;;;2.65;;
27402;SDS011;14862;49.494;8.530;2024-03-23T10:28:51;5.30;;;2.25;;
27402;SDS011;14862;49.494;8.530;2024-03-23T10:31:17;7.78;;;2.50;;
27402;SDS011;14862;49.494;8.530;2024-03-23T10:33:45;12.63;;;2.50;;
27402;SDS011;14862;49.494;8.530;2024-03-23T10:36:11;5.53;;;1.95;;
27402;SDS011;14862;49.494;8.530;2024-03-23T10:38:37;8.57;;;2.78;;
27402;SDS011;14862;49.494;8.530;2024-03-23T10:41:03;6.70;;;2.45;;
27402;SDS011;14862;49.494;8.530;2024-03-23T10:43:28;6.28;;;2.70;;
27402;SDS011;14862;49.494;8.530;2024-03-23T10:45:54;8.27;;;2.08;;
27402;SDS011;14862;49.494;8.530;2024-03-23T10:48:19;6.03;;;1.85;;
27402;SDS011;14862;49.494;8.530;2024-03-23T10:50:45;4.82;;;2.15;;
27402;SDS011;14862;49.494;8.530;2024-03-23T10:53:10;5.10;;;1.80;;
27402;SDS011;14862;49.494;8.530;2024-03-23T10:55:37;6.95;;;2.75;;
27402;SDS011;14862;49.494;8.530;2024-03-23T10:58:02;5.40;;;2.00;;
27402;SDS011;14862;49.494;8.530;2024-03-23T11:00:28;5.93;;;2.00;;
27402;SDS011;14862;49.494;8.530;2024-03-23T11:02:53;8.82;;;2.20;;
27402;SDS011;14862;49.494;8.530;2024-03-23T11:07:50;7.07;;;1.95;;
27402;SDS011;14862;49.494;8.530;2024-03-23T11:12:49;6.68;;;2.38;;
27402;SDS011;14862;49.494;8.530;2024-03-23T11:15:14;4.40;;;1.97;;
27402;SDS011;14862;49.494;8.530;2024-03-23T11:17:40;8.25;;;2.40;;
27402;SDS011;14862;49.494;8.530;2024-03-23T11:20:06;7.10;;;2.63;;
27402;SDS011;14862;49.494;8.530;2024-03-23T11:25:02;8.02;;;2.30;;
27402;SDS011;14862;49.494;8.530;2024-03-23T11:27:28;8.07;;;2.53;;
27402;SDS011;14862;49.494;8.530;2024-03-23T11:29:53;7.45;;;2.20;;
27402;SDS011;14862;49.494;8.530;2024-03-23T11:32:18;5.47;;;2.08;;
27402;SDS011;14862;49.494;8.530;2024-03-23T11:34:43;4.75;;;2.10;;
27402;SDS011;14862;49.494;8.530;2024-03-23T11:37:09;6.00;;;1.77;;
27402;SDS011;14862;49.494;8.530;2024-03-23T11:39:34;6.50;;;2.40;;
27402;SDS011;14862;49.494;8.530;2024-03-23T11:41:59;6.80;;;2.00;;
27402;SDS011;14862;49.494;8.530;2024-03-23T11:44:25;5.93;;;2.25;;
27402;SDS011;14862;49.494;8.530;2024-03-23T11:46:50;7.82;;;2.38;;
27402;SDS011;14862;49.494;8.530;2024-03-23T11:51:46;6.13;;;1.73;;
27402;SDS011;14862;49.494;8.530;2024-03-23T11:54:12;6.63;;;2.25;;
27402;SDS011;14862;49.494;8.530;2024-03-23T11:56:37;5.45;;;2.15;;
27402;SDS011;14862;49.494;8.530;2024-03-23T11:59:02;7.80;;;2.30;;
27402;SDS011;14862;49.494;8.530;2024-03-23T12:01:27;5.05;;;2.00;;
27402;SDS011;14862;49.494;8.530;2024-03-23T12:03:53;6.85;;;2.30;;
27402;SDS011;14862;49.494;8.530;2024-03-23T12:06:19;10.35;;;3.10;;
27402;SDS011;14862;49.494;8.530;2024-03-23T12:08:44;5.32;;;1.85;;
27402;SDS011;14862;49.494;8.530;2024-03-23T12:11:11;3.83;;;1.83;;
27402;SDS011;14862;49.494;8.530;2024-03-23T12:13:37;7.82;;;2.47;;
27402;SDS011;14862;49.494;8.530;2024-03-23T12:16:12;2.85;;;1.77;;
27402;SDS011;14862;49.494;8.530;2024-03-23T12:18:39;6.18;;;1.80;;
27402;SDS011;14862;49.494;8.530;2024-03-23T12:21:07;4.50;;;1.67;;
27402;SDS011;14862;49.494;8.530;2024-03-23T12:23:33;3.35;;;1.92;;
27402;SDS011;14862;49.494;8.530;2024-03-23T12:25:58;5.70;;;1.98;;
27402;SDS011;14862;49.494;8.530;2024-03-23T12:28:24;4.97;;;2.05;;
27402;SDS011;14862;49.494;8.530;2024-03-23T12:30:49;6.50;;;2.17;;
27402;SDS011;14862;49.494;8.530;2024-03-23T12:33:14;5.22;;;2.28;;
27402;SDS011;14862;49.494;8.530;2024-03-23T12:35:39;5.78;;;2.17;;
27402;SDS011;14862;49.494;8.530;2024-03-23T12:38:04;5.87;;;2.40;;
27402;SDS011;14862;49.494;8.530;2024-03-23T12:40:30;4.23;;;2.73;;
27402;SDS011;14862;49.494;8.530;2024-03-23T12:42:55;7.15;;;3.28;;
27402;SDS011;14862;49.494;8.530;2024-03-23T12:45:23;5.28;;;2.10;;
27402;SDS011;14862;49.494;8.530;2024-03-23T12:47:49;3.10;;;1.40;;
27402;SDS011;14862;49.494;8.530;2024-03-23T12:50:14;4.88;;;1.60;;
27402;SDS011;14862;49.494;8.530;2024-03-23T12:52:39;2.90;;;1.60;;
27402;SDS011;14862;49.494;8.530;2024-03-23T12:55:04;4.38;;;1.40;;
27402;SDS011;14862;49.494;8.530;2024-03-23T12:57:32;5.70;;;1.90;;
27402;SDS011;14862;49.494;8.530;2024-03-23T12:59:58;3.75;;;1.80;;
27402;SDS011;14862;49.494;8.530;2024-03-23T13:02:24;4.53;;;1.00;;
27402;SDS011;14862;49.494;8.530;2024-03-23T13:04:50;1.98;;;0.73;;
27402;SDS011;14862;49.494;8.530;2024-03-23T13:07:15;2.58;;;0.88;;
27402;SDS011;14862;49.494;8.530;2024-03-23T13:09:41;5.70;;;0.60;;
27402;SDS011;14862;49.494;8.530;2024-03-23T13:12:06;3.75;;;0.70;;
27402;SDS011;14862;49.494;8.530;2024-03-23T13:14:32;1.90;;;0.68;;
27402;SDS011;14862;49.494;8.530;2024-03-23T13:16:57;2.40;;;0.88;;
27402;SDS011;14862;49.494;8.530;2024-03-23T13:19:22;2.13;;;0.80;;
27402;SDS011;14862;49.494;8.530;2024-03-23T13:21:51;7.90;;;1.20;;
27402;SDS011;14862;49.494;8.530;2024-03-23T13:24:17;1.42;;;0.82;;
27402;SDS011;14862;49.494;8.530;2024-03-23T13:26:42;1.55;;;0.65;;
27402;SDS011;14862;49.494;8.530;2024-03-23T13:29:07;2.50;;;0.90;;
27402;SDS011;14862;49.494;8.530;2024-03-23T13:31:32;3.10;;;1.20;;
27402;SDS011;14862;49.494;8.530;2024-03-23T13:33:59;2.53;;;1.70;;
27402;SDS011;14862;49.494;8.530;2024-03-23T13:36:24;2.80;;;1.10;;
27402;SDS011;14862;49.494;8.530;2024-03-23T13:38:49;5.00;;;1.10;;
27402;SDS011;14862;49.494;8.530;2024-03-23T13:41:15;2.15;;;0.95;;
27402;SDS011;14862;49.494;8.530;2024-03-23T13:43:40;2.67;;;1.10;;
27402;SDS011;14862;49.494;8.530;2024-03-23T13:46:06;1.63;;;0.77;;
27402;SDS011;14862;49.494;8.530;2024-03-23T13:48:31;4.38;;;1.05;;
27402;SDS011;14862;49.494;8.530;2024-03-23T13:50:59;2.70;;;0.95;;
27402;SDS011;14862;49.494;8.530;2024-03-23T13:53:25;2.58;;;0.95;;
27402;SDS011;14862;49.494;8.530;2024-03-23T13:55:50;2.38;;;1.23;;
27402;SDS011;14862;49.494;8.530;2024-03-23T13:58:15;1.75;;;1.00;;
27402;SDS011;14862;49.494;8.530;2024-03-23T14:00:40;1.15;;;0.70;;
27402;SDS011;14862;49.494;8.530;2024-03-23T14:03:07;3.65;;;0.88;;
27402;SDS011;14862;49.494;8.530;2024-03-23T14:05:33;2.83;;;0.90;;
27402;SDS011;14862;49.494;8.530;2024-03-23T14:07:58;5.60;;;1.20;;
27402;SDS011;14862;49.494;8.530;2024-03-23T14:10:23;3.60;;;1.60;;
27402;SDS011;14862;49.494;8.530;2024-03-23T14:12:48;2.05;;;0.98;;
27402;SDS011;14862;49.494;8.530;2024-03-23T14:15:14;2.58;;;1.08;;
27402;SDS011;14862;49.494;8.530;2024-03-23T14:17:39;4.13;;;1.00;;
27402;SDS011;14862;49.494;8.530;2024-03-23T14:20:04;2.05;;;0.70;;
27402;SDS011;14862;49.494;8.530;2024-03-23T14:22:30;4.63;;;1.20;;
27402;SDS011;14862;49.494;8.530;2024-03-23T14:24:56;2.13;;;0.98;;
27402;SDS011;14862;49.494;8.530;2024-03-23T14:27:21;1.27;;;0.73;;
27402;SDS011;14862;49.494;8.530;2024-03-23T14:29:49;2.33;;;0.73;;
27402;SDS011;14862;49.494;8.530;2024-03-23T14:32:14;3.60;;;1.00;;
27402;SDS011;14862;49.494;8.530;2024-03-23T14:34:40;3.70;;;0.90;;
27402;SDS011;14862;49.494;8.530;2024-03-23T14:37:05;2.97;;;1.10;;
27402;SDS011;14862;49.494;8.530;2024-03-23T14:39:31;1.85;;;0.90;;
27402;SDS011;14862;49.494;8.530;2024-03-23T14:41:56;2.03;;;0.77;;
27402;SDS011;14862;49.494;8.530;2024-03-23T14:44:22;3.17;;;0.55;;
27402;SDS011;14862;49.494;8.530;2024-03-23T14:46:47;1.70;;;0.80;;
27402;SDS011;14862;49.494;8.530;2024-03-23T14:49:15;2.28;;;0.73;;
27402;SDS011;14862;49.494;8.530;2024-03-23T14:51:41;1.55;;;1.05;;
27402;SDS011;14862;49.494;8.530;2024-03-23T14:54:06;1.92;;;0.60;;
27402;SDS011;14862;49.494;8.530;2024-03-23T14:56:32;0.57;;;0.53;;
27402;SDS011;14862;49.494;8.530;2024-03-23T14:58:57;2.17;;;0.80;;
27402;SDS011;14862;49.494;8.530;2024-03-23T15:01:22;7.43;;;1.53;;
27402;SDS011;14862;49.494;8.530;2024-03-23T15:03:47;1.70;;;0.80;;
27402;SDS011;14862;49.494;8.530;2024-03-23T15:06:13;1.95;;;0.93;;
27402;SDS011;14862;49.494;8.530;2024-03-23T15:08:38;1.50;;;0.70;;
27402;SDS011;14862;49.494;8.530;2024-03-23T15:11:05;2.10;;;1.00;;
27402;SDS011;14862;49.494;8.530;2024-03-23T15:13:33;1.67;;;1.20;;
27402;SDS011;14862;49.494;8.530;2024-03-23T15:15:59;2.08;;;1.10;;
27402;SDS011;14862;49.494;8.530;2024-03-23T15:18:24;2.30;;;1.50;;
27402;SDS011;14862;49.494;8.530;2024-03-23T15:20:53;1.35;;;0.88;;
27402;SDS011;14862;49.494;8.530;2024-03-23T15:23:19;2.60;;;1.05;;
27402;SDS011;14862;49.494;8.530;2024-03-23T15:25:44;1.80;;;0.90;;
27402;SDS011;14862;49.494;8.530;2024-03-23T15:28:09;2.45;;;1.25;;
27402;SDS011;14862;49.494;8.530;2024-03-23T15:30:34;1.63;;;0.87;;
27402;SDS011;14862;49.494;8.530;2024-03-23T15:33:00;3.65;;;1.30;;
27402;SDS011;14862;49.494;8.530;2024-03-23T15:35:25;1.90;;;0.73;;
27402;SDS011;14862;49.494;8.530;2024-03-23T15:37:50;2.50;;;1.40;;